Share

Ponca, AR (72670)

Parthenon AR (KARPARTH3) Elev 997 ft | 35.95 °N, 93.28 °W | Change Station

Current weather conditions updated 14 minutes ago

Clear
Clear
64.7 °F
Feels Like 64.7 °F
N
4.0
Wind Variable Wind from NE
Gusts 6.0 mph
Sunrise 6:37 AM
Sunset 7:49 PM
Moon Waning Gibbous

Today is forecast to be Warmer than yesterday.

Pressure 30.24 in
Visibility 10.0 miles
Clouds Clear
Dew Point 38 °F
Humidity 38%
Rainfall 0.00 in
Snow Depth Not available.
UV 10 out of 16
Pollen 9.00 out of 12
Air Quality Not available.
Flu Activity Sporadic
METAR KHRO 171653Z AUTO 00000KT 10SM CLR 16/01 A3024

More Conditions Fewer Conditions

Pressure 30.24 in
Visibility 10.0 miles
Clouds Clear
Dew Point 38 °F
Humidity 38%
Rainfall 0.00 in
Snow Depth Not available.
UV 10 out of 16
Pollen 9.00 out of 12
Air Quality Not available.
Flu Activity Sporadic
METAR KHRO 171653Z AUTO 00000KT 10SM CLR 16/01 A3024

More Conditions Fewer Conditions

10-Day Forecast

Almanac

Astronomy

Apr. 17, 2014 Rise Set
Actual Time 6:37 AM CDT 7:49 PM CDT
Civil Twilight 6:11 AM CDT 8:15 PM CDT
Nautical Twilight 5:39 AM CDT 8:47 PM CDT
Astronomical Twilight 5:06 AM CDT 9:20 PM CDT
Moon 10:31 PM CDT 8:13 AM CDT
Length of Visible Light 14h 04m
Length of Day
13h 11m
Tomorrow will be 2m 8s longer.
Waning Gibbous, 93% of the Moon is Illuminated
Today
Waning Gibbous
Apr 22
Last Quarter
Apr 29
New
May 6
First Quarter
May 14
Full

Today's Extremes

State Highs State Lows

Community

  • New Day
    New Day
  • Lake Michigan Sunrise
    Lake Michigan Sunrise
  • sunset from izmir, narlıdere
    sunset from izmir, narlıdere
  • oregon cherry
    oregon cherry
  • Sunset over the Bay
    Sunset over the Bay

WunderPhotos

Upload Photos

1,702,077 photos uploaded!

Nearby

Snow Depth

Station Depth Elevation
No new snow has been reported.

Coastal Water Temperatures

Place Temperature
No Stations Reporting

Earthquake Activity

City Distance Mag. Time & Date
No recent earthquake activity has been reported nearby.
Minimum magnitude displayed is 2.5.

Nearby Weather Stations

Station Location Temp. Dew Point Humidity Wind Precip. Elev Updated Type
RAWS COMPTON AR, Compton, AR 62 °F 32 °F 32% ESE  at  3 mph 0.00 in / hr 2365 ft 11:23 AM CDT MADIS
Parthenon AR, Parthenon, AR 64.7 °F 38 °F 38% NE  at  4.0 mph 0.00 in / hr 997 ft 12:12 PM CDT Normal
Upper Whorton Creek, Huntsville, AR 64.6 °F 43 °F 46% North  at  0.0 mph 0.00 in / hr 1503 ft 12:26 PM CDT Rapid Fire
Gaither, Harrison, AR 69.4 °F 40 °F 34% East  at  4.2 mph - / hr 1325 ft 12:16 PM CDT Normal
AJ5C - Northwest Harrison, Harrison, AR 61.4 °F 37 °F 40% West  at  8.1 mph 0.00 in / hr 1332 ft 12:26 PM CDT Rapid Fire
Berryville, AR 57.6 °F 39 °F 50% SW  at  3.0 mph 0.00 in / hr 1204 ft 10:07 AM CDT Rapid Fire

Show More Stations Show Fewer Stations

What do you think?

We're not finished. Please let us know what you like, what you don't like, and what you are still missing.